sensor_id;sensor_type;location;lat;lon;timestamp;pressure;altitude;pressure_sealevel;temperature;humidity
63694;BME280;49839;51.798;10.954;2022-09-09T00:01:48;98568.84;;;14.66;nan
63694;BME280;49839;51.798;10.954;2022-09-09T00:04:25;98561.38;;;14.60;nan
63694;BME280;49839;51.798;10.954;2022-09-09T00:07:07;98553.44;;;14.60;nan
63694;BME280;49839;51.798;10.954;2022-09-09T00:09:43;98546.44;;;14.59;nan
63694;BME280;49839;51.798;10.954;2022-09-09T00:12:16;98555.38;;;14.58;nan
63694;BME280;49839;51.798;10.954;2022-09-09T00:14:52;98552.94;;;14.55;nan
63694;BME280;49839;51.798;10.954;2022-09-09T00:17:31;98551.28;;;14.54;nan
63694;BME280;49839;51.798;10.954;2022-09-09T00:20:06;98556.97;;;14.49;nan
63694;BME280;49839;51.798;10.954;2022-09-09T00:22:41;98550.16;;;14.45;nan
63694;BME280;49839;51.798;10.954;2022-09-09T00:25:18;98558.13;;;14.45;nan
63694;BME280;49839;51.798;10.954;2022-09-09T00:27:50;98550.53;;;14.41;nan
63694;BME280;49839;51.798;10.954;2022-09-09T00:30:19;98558.75;;;14.38;nan
63694;BME280;49839;51.798;10.954;2022-09-09T00:32:52;98552.69;;;14.35;nan
63694;BME280;49839;51.798;10.954;2022-09-09T00:35:27;98552.69;;;14.35;nan
63694;BME280;49839;51.798;10.954;2022-09-09T00:38:09;98552.59;;;14.37;nan
63694;BME280;49839;51.798;10.954;2022-09-09T00:40:41;98549.09;;;14.36;nan
63694;BME280;49839;51.798;10.954;2022-09-09T00:43:27;98537.53;;;14.38;nan
63694;BME280;49839;51.798;10.954;2022-09-09T00:46:15;98543.53;;;14.40;nan
63694;BME280;49839;51.798;10.954;2022-09-09T00:48:52;98547.75;;;14.42;nan
63694;BME280;49839;51.798;10.954;2022-09-09T00:51:30;98550.41;;;14.42;nan
63694;BME280;49839;51.798;10.954;2022-09-09T00:54:17;98556.44;;;14.44;nan
63694;BME280;49839;51.798;10.954;2022-09-09T00:56:55;98551.16;;;14.44;nan
63694;BME280;49839;51.798;10.954;2022-09-09T00:59:35;98546.69;;;14.45;nan
63694;BME280;49839;51.798;10.954;2022-09-09T01:02:12;98555.38;;;14.47;nan
63694;BME280;49839;51.798;10.954;2022-09-09T01:04:43;98561.75;;;14.44;nan
63694;BME280;49839;51.798;10.954;2022-09-09T01:07:16;98557.41;;;14.43;nan
63694;BME280;49839;51.798;10.954;2022-09-09T01:09:56;98549.81;;;14.39;nan
63694;BME280;49839;51.798;10.954;2022-09-09T01:12:25;98556.19;;;14.36;nan
63694;BME280;49839;51.798;10.954;2022-09-09T01:15:00;98565.22;;;14.33;nan
63694;BME280;49839;51.798;10.954;2022-09-09T01:17:44;98568.25;;;14.29;nan
63694;BME280;49839;51.798;10.954;2022-09-09T01:20:15;98571.72;;;14.29;nan
63694;BME280;49839;51.798;10.954;2022-09-09T01:22:53;98574.38;;;14.29;nan
63694;BME280;49839;51.798;10.954;2022-09-09T01:25:30;98576.69;;;14.34;nan
63694;BME280;49839;51.798;10.954;2022-09-09T01:28:02;98569.44;;;14.36;nan
63694;BME280;49839;51.798;10.954;2022-09-09T01:30:31;98567.53;;;14.38;nan
63694;BME280;49839;51.798;10.954;2022-09-09T01:33:00;98567.41;;;14.40;nan
63694;BME280;49839;51.798;10.954;2022-09-09T01:35:45;98559.44;;;14.40;nan
63694;BME280;49839;51.798;10.954;2022-09-09T01:38:15;98562.94;;;14.40;nan
63694;BME280;49839;51.798;10.954;2022-09-09T01:40:43;98564.03;;;14.38;nan
63694;BME280;49839;51.798;10.954;2022-09-09T01:43:13;98572.00;;;14.38;nan
63694;BME280;49839;51.798;10.954;2022-09-09T01:45:40;98563.44;;;14.34;nan
63694;BME280;49839;51.798;10.954;2022-09-09T01:48:10;98571.38;;;14.34;nan
63694;BME280;49839;51.798;10.954;2022-09-09T01:50:37;98566.06;;;14.34;nan
63694;BME280;49839;51.798;10.954;2022-09-09T01:53:05;98573.19;;;14.33;nan
63694;BME280;49839;51.798;10.954;2022-09-09T01:55:37;98563.69;;;14.31;nan
63694;BME280;49839;51.798;10.954;2022-09-09T01:58:20;98558.38;;;14.31;nan
63694;BME280;49839;51.798;10.954;2022-09-09T02:00:58;98554.88;;;14.30;nan
63694;BME280;49839;51.798;10.954;2022-09-09T02:03:31;98552.25;;;14.30;nan
63694;BME280;49839;51.798;10.954;2022-09-09T02:06:07;98546.94;;;14.30;nan
63694;BME280;49839;51.798;10.954;2022-09-09T02:08:45;98547.53;;;14.34;nan
63694;BME280;49839;51.798;10.954;2022-09-09T02:11:16;98541.50;;;14.32;nan
63694;BME280;49839;51.798;10.954;2022-09-09T02:13:47;98548.38;;;14.34;nan
63694;BME280;49839;51.798;10.954;2022-09-09T02:16:19;98549.09;;;14.36;nan
63694;BME280;49839;51.798;10.954;2022-09-09T02:18:51;98553.44;;;14.38;nan
63694;BME280;49839;51.798;10.954;2022-09-09T02:21:22;98543.53;;;14.40;nan
63694;BME280;49839;51.798;10.954;2022-09-09T02:23:50;98555.00;;;14.40;nan
63694;BME280;49839;51.798;10.954;2022-09-09T02:26:21;98558.34;;;14.42;nan
63694;BME280;49839;51.798;10.954;2022-09-09T02:28:53;98563.44;;;14.45;nan
63694;BME280;49839;51.798;10.954;2022-09-09T02:31:24;98555.38;;;14.47;nan
63694;BME280;49839;51.798;10.954;2022-09-09T02:33:53;98560.56;;;14.48;nan
63694;BME280;49839;51.798;10.954;2022-09-09T02:36:25;98557.19;;;14.46;nan
63694;BME280;49839;51.798;10.954;2022-09-09T02:38:56;98560.56;;;14.48;nan
63694;BME280;49839;51.798;10.954;2022-09-09T02:41:28;98558.75;;;14.49;nan
63694;BME280;49839;51.798;10.954;2022-09-09T02:43:59;98553.34;;;14.50;nan
63694;BME280;49839;51.798;10.954;2022-09-09T02:46:56;98556.00;;;14.50;nan
63694;BME280;49839;51.798;10.954;2022-09-09T02:49:33;98562.84;;;14.53;nan
63694;BME280;49839;51.798;10.954;2022-09-09T02:52:06;98557.66;;;14.51;nan
63694;BME280;49839;51.798;10.954;2022-09-09T02:54:35;98551.28;;;14.54;nan
63694;BME280;49839;51.798;10.954;2022-09-09T02:57:08;98562.63;;;14.56;nan
63694;BME280;49839;51.798;10.954;2022-09-09T02:59:39;98566.94;;;14.57;nan
63694;BME280;49839;51.798;10.954;2022-09-09T03:02:08;98570.44;;;14.57;nan
63694;BME280;49839;51.798;10.954;2022-09-09T03:04:36;98569.59;;;14.57;nan
63694;BME280;49839;51.798;10.954;2022-09-09T03:07:04;98569.59;;;14.57;nan
63694;BME280;49839;51.798;10.954;2022-09-09T03:09:32;98566.22;;;14.55;nan
63694;BME280;49839;51.798;10.954;2022-09-09T03:12:00;98566.09;;;14.56;nan
63694;BME280;49839;51.798;10.954;2022-09-09T03:14:28;98574.16;;;14.55;nan
63694;BME280;49839;51.798;10.954;2022-09-09T03:16:58;98568.16;;;14.53;nan
63694;BME280;49839;51.798;10.954;2022-09-09T03:19:27;98564.53;;;14.54;nan
63694;BME280;49839;51.798;10.954;2022-09-09T03:21:56;98570.94;;;14.51;nan
63694;BME280;49839;51.798;10.954;2022-09-09T03:24:24;98576.34;;;14.50;nan
63694;BME280;49839;51.798;10.954;2022-09-09T03:26:52;98565.00;;;14.48;nan
63694;BME280;49839;51.798;10.954;2022-09-09T03:29:22;98567.78;;;14.46;nan
63694;BME280;49839;51.798;10.954;2022-09-09T03:31:49;98566.91;;;14.46;nan
63694;BME280;49839;51.798;10.954;2022-09-09T03:34:19;98559.84;;;14.46;nan
63694;BME280;49839;51.798;10.954;2022-09-09T03:36:46;98551.97;;;14.45;nan
63694;BME280;49839;51.798;10.954;2022-09-09T03:39:15;98551.16;;;14.44;nan
63694;BME280;49839;51.798;10.954;2022-09-09T03:41:42;98559.22;;;14.43;nan
63694;BME280;49839;51.798;10.954;2022-09-09T03:44:14;98566.06;;;14.45;nan
63694;BME280;49839;51.798;10.954;2022-09-09T03:46:42;98562.59;;;14.45;nan
63694;BME280;49839;51.798;10.954;2022-09-09T03:49:09;98565.13;;;14.46;nan
63694;BME280;49839;51.798;10.954;2022-09-09T03:51:39;98568.50;;;14.48;nan
63694;BME280;49839;51.798;10.954;2022-09-09T03:54:07;98570.22;;;14.49;nan
63694;BME280;49839;51.798;10.954;2022-09-09T03:56:36;98566.59;;;14.50;nan
63694;BME280;49839;51.798;10.954;2022-09-09T03:59:03;98571.75;;;14.52;nan
63694;BME280;49839;51.798;10.954;2022-09-09T04:01:32;98571.63;;;14.53;nan
63694;BME280;49839;51.798;10.954;2022-09-09T04:04:00;98561.50;;;14.58;nan
63694;BME280;49839;51.798;10.954;2022-09-09T04:06:28;98571.88;;;14.61;nan
63694;BME280;49839;51.798;10.954;2022-09-09T04:08:57;98571.75;;;14.63;nan
63694;BME280;49839;51.798;10.954;2022-09-09T04:11:25;98567.88;;;14.67;nan
63694;BME280;49839;51.798;10.954;2022-09-09T04:13:52;98571.13;;;14.71;nan
63694;BME280;49839;51.798;10.954;2022-09-09T04:16:20;98580.78;;;14.72;nan
63694;BME280;49839;51.798;10.954;2022-09-09T04:18:48;98569.91;;;14.75;nan
63694;BME280;49839;51.798;10.954;2022-09-09T04:21:16;98583.06;;;14.76;nan
63694;BME280;49839;51.798;10.954;2022-09-09T04:23:43;98576.94;;;14.76;nan
63694;BME280;49839;51.798;10.954;2022-09-09T04:26:12;98585.59;;;14.67;nan
63694;BME280;49839;51.798;10.954;2022-09-09T04:28:40;98575.38;;;14.62;nan
63694;BME280;49839;51.798;10.954;2022-09-09T04:31:09;98588.03;;;14.58;nan
63694;BME280;49839;51.798;10.954;2022-09-09T04:33:37;98583.09;;;14.54;nan
63694;BME280;49839;51.798;10.954;2022-09-09T04:36:06;98583.69;;;14.46;nan
63694;BME280;49839;51.798;10.954;2022-09-09T04:38:34;98583.19;;;14.41;nan
63694;BME280;49839;51.798;10.954;2022-09-09T04:41:02;98580.91;;;14.36;nan
63694;BME280;49839;51.798;10.954;2022-09-09T04:43:31;98573.19;;;14.33;nan
63694;BME280;49839;51.798;10.954;2022-09-09T04:45:59;98573.19;;;14.33;nan
63694;BME280;49839;51.798;10.954;2022-09-09T04:48:26;98576.94;;;14.31;nan
63694;BME280;49839;51.798;10.954;2022-09-09T04:50:56;98580.16;;;14.34;nan
63694;BME280;49839;51.798;10.954;2022-09-09T04:53:24;98573.66;;;14.39;nan
63694;BME280;49839;51.798;10.954;2022-09-09T04:55:53;98566.31;;;14.42;nan
63694;BME280;49839;51.798;10.954;2022-09-09T04:58:27;98575.97;;;14.43;nan
63694;BME280;49839;51.798;10.954;2022-09-09T05:01:03;98570.66;;;14.43;nan
63694;BME280;49839;51.798;10.954;2022-09-09T05:03:31;98579.34;;;14.45;nan
63694;BME280;49839;51.798;10.954;2022-09-09T05:06:02;98576.59;;;14.47;nan
63694;BME280;49839;51.798;10.954;2022-09-09T05:08:31;98579.84;;;14.50;nan
63694;BME280;49839;51.798;10.954;2022-09-09T05:10:58;98569.13;;;14.52;nan
63694;BME280;49839;51.798;10.954;2022-09-09T05:13:28;98580.31;;;14.55;nan
63694;BME280;49839;51.798;10.954;2022-09-09T05:15:59;98574.78;;;14.58;nan
63694;BME280;49839;51.798;10.954;2022-09-09T05:18:26;98580.69;;;14.62;nan
63694;BME280;49839;51.798;10.954;2022-09-09T05:20:58;98578.63;;;14.66;nan
63694;BME280;49839;51.798;10.954;2022-09-09T05:23:26;98582.59;;;14.71;nan
63694;BME280;49839;51.798;10.954;2022-09-09T05:25:55;98575.59;;;14.70;nan
63694;BME280;49839;51.798;10.954;2022-09-09T05:28:23;98584.41;;;14.71;nan
63694;BME280;49839;51.798;10.954;2022-09-09T05:31:00;98581.63;;;14.72;nan
63694;BME280;49839;51.798;10.954;2022-09-09T05:33:31;98573.44;;;14.75;nan
63694;BME280;49839;51.798;10.954;2022-09-09T05:36:00;98576.09;;;14.75;nan
63694;BME280;49839;51.798;10.954;2022-09-09T05:38:29;98573.31;;;14.77;nan
63694;BME280;49839;51.798;10.954;2022-09-09T05:40:57;98568.84;;;14.77;nan
63694;BME280;49839;51.798;10.954;2022-09-09T05:43:25;98580.53;;;14.75;nan
63694;BME280;49839;51.798;10.954;2022-09-09T05:46:02;98581.25;;;14.77;nan
63694;BME280;49839;51.798;10.954;2022-09-09T05:48:31;98588.25;;;14.78;nan
63694;BME280;49839;51.798;10.954;2022-09-09T05:51:00;98590.75;;;14.79;nan
63694;BME280;49839;51.798;10.954;2022-09-09T05:53:28;98584.25;;;14.83;nan
63694;BME280;49839;51.798;10.954;2022-09-09T05:55:59;98580.97;;;15.02;nan
63694;BME280;49839;51.798;10.954;2022-09-09T05:58:27;98587.59;;;15.08;nan
63694;BME280;49839;51.798;10.954;2022-09-09T06:01:02;98584.66;;;15.11;nan
63694;BME280;49839;51.798;10.954;2022-09-09T06:03:30;98576.69;;;15.11;nan
63694;BME280;49839;51.798;10.954;2022-09-09T06:05:58;98579.22;;;15.12;nan
63694;BME280;49839;51.798;10.954;2022-09-09T06:08:26;98587.78;;;15.16;nan
63694;BME280;49839;51.798;10.954;2022-09-09T06:11:01;98592.13;;;15.17;nan
63694;BME280;49839;51.798;10.954;2022-09-09T06:13:30;98597.19;;;15.20;nan
63694;BME280;49839;51.798;10.954;2022-09-09T06:15:58;98594.28;;;15.23;nan
63694;BME280;49839;51.798;10.954;2022-09-09T06:18:27;98599.28;;;15.37;nan
63694;BME280;49839;51.798;10.954;2022-09-09T06:20:56;98603.91;;;15.67;nan
63694;BME280;49839;51.798;10.954;2022-09-09T06:23:25;98596.22;;;16.16;nan
63694;BME280;49839;51.798;10.954;2022-09-09T06:26:00;98596.31;;;16.35;nan
63694;BME280;49839;51.798;10.954;2022-09-09T06:28:28;98588.03;;;16.29;nan
63694;BME280;49839;51.798;10.954;2022-09-09T06:30:59;98593.19;;;16.20;nan
63694;BME280;49839;51.798;10.954;2022-09-09T06:33:32;98586.56;;;16.15;nan
63694;BME280;49839;51.798;10.954;2022-09-09T06:36:02;98586.56;;;16.15;nan
63694;BME280;49839;51.798;10.954;2022-09-09T06:38:31;98577.75;;;16.14;nan
63694;BME280;49839;51.798;10.954;2022-09-09T06:40:59;98578.81;;;16.23;nan
63694;BME280;49839;51.798;10.954;2022-09-09T06:43:28;98577.28;;;16.30;nan
63694;BME280;49839;51.798;10.954;2022-09-09T06:45:57;98577.47;;;16.38;nan
63694;BME280;49839;51.798;10.954;2022-09-09T06:48:25;98571.16;;;16.39;nan
63694;BME280;49839;51.798;10.954;2022-09-09T06:51:03;98560.81;;;16.46;nan
63694;BME280;49839;51.798;10.954;2022-09-09T06:53:31;98561.81;;;16.55;nan
63694;BME280;49839;51.798;10.954;2022-09-09T06:56:00;98562.00;;;16.63;nan
63694;BME280;49839;51.798;10.954;2022-09-09T06:58:29;98570.03;;;16.72;nan
63694;BME280;49839;51.798;10.954;2022-09-09T07:01:02;98568.69;;;16.97;nan
63694;BME280;49839;51.798;10.954;2022-09-09T07:03:31;98572.22;;;17.08;nan
63694;BME280;49839;51.798;10.954;2022-09-09T07:06:03;98568.31;;;17.21;nan
63694;BME280;49839;51.798;10.954;2022-09-09T07:08:31;98569.31;;;17.40;nan
63694;BME280;49839;51.798;10.954;2022-09-09T07:11:02;98567.47;;;17.40;nan
63694;BME280;49839;51.798;10.954;2022-09-09T07:13:34;98574.19;;;17.44;nan
63694;BME280;49839;51.798;10.954;2022-09-09T07:16:03;98559.59;;;17.39;nan
63694;BME280;49839;51.798;10.954;2022-09-09T07:18:31;98564.94;;;17.39;nan
63694;BME280;49839;51.798;10.954;2022-09-09T07:21:00;98565.25;;;17.45;nan
63694;BME280;49839;51.798;10.954;2022-09-09T07:23:30;98569.84;;;17.53;nan
63694;BME280;49839;51.798;10.954;2022-09-09T07:26:01;98559.19;;;17.43;nan
63694;BME280;49839;51.798;10.954;2022-09-09T07:28:29;98568.03;;;17.44;nan
63694;BME280;49839;51.798;10.954;2022-09-09T07:30:59;98567.59;;;17.39;nan
63694;BME280;49839;51.798;10.954;2022-09-09T07:33:30;98568.03;;;17.44;nan
63694;BME280;49839;51.798;10.954;2022-09-09T07:36:03;98570.28;;;17.48;nan
63694;BME280;49839;51.798;10.954;2022-09-09T07:38:36;98573.50;;;17.52;nan
63694;BME280;49839;51.798;10.954;2022-09-09T07:41:05;98569.28;;;17.49;nan
63694;BME280;49839;51.798;10.954;2022-09-09T07:43:34;98575.59;;;17.48;nan
63694;BME280;49839;51.798;10.954;2022-09-09T07:46:02;98567.19;;;17.43;nan
63694;BME280;49839;51.798;10.954;2022-09-09T07:48:29;98563.25;;;17.47;nan
63694;BME280;49839;51.798;10.954;2022-09-09T07:51:05;98565.50;;;17.42;nan
63694;BME280;49839;51.798;10.954;2022-09-09T07:53:35;98572.63;;;17.32;nan
63694;BME280;49839;51.798;10.954;2022-09-09T07:56:06;98581.63;;;17.31;nan
63694;BME280;49839;51.798;10.954;2022-09-09T07:58:35;98580.50;;;17.33;nan
63694;BME280;49839;51.798;10.954;2022-09-09T08:01:09;98585.66;;;17.25;nan
63694;BME280;49839;51.798;10.954;2022-09-09T08:03:37;98583.72;;;17.37;nan
63694;BME280;49839;51.798;10.954;2022-09-09T08:06:07;98573.38;;;17.53;nan
63694;BME280;49839;51.798;10.954;2022-09-09T08:08:37;98570.88;;;17.71;nan
63694;BME280;49839;51.798;10.954;2022-09-09T08:11:07;98564.94;;;17.77;nan
63694;BME280;49839;51.798;10.954;2022-09-09T08:13:35;98572.72;;;18.08;nan
63694;BME280;49839;51.798;10.954;2022-09-09T08:16:05;98568.41;;;18.44;nan
63694;BME280;49839;51.798;10.954;2022-09-09T08:18:33;98582.09;;;18.86;nan
63694;BME280;49839;51.798;10.954;2022-09-09T08:21:09;98583.63;;;19.34;nan
63694;BME280;49839;51.798;10.954;2022-09-09T08:23:40;98573.72;;;20.06;nan
63694;BME280;49839;51.798;10.954;2022-09-09T08:26:11;98586.41;;;20.56;nan
63694;BME280;49839;51.798;10.954;2022-09-09T08:28:40;98584.44;;;21.25;nan
63694;BME280;49839;51.798;10.954;2022-09-09T08:31:10;98582.16;;;21.95;nan
63694;BME280;49839;51.798;10.954;2022-09-09T08:33:38;98583.13;;;22.43;nan
63694;BME280;49839;51.798;10.954;2022-09-09T08:36:08;98572.06;;;22.77;nan
63694;BME280;49839;51.798;10.954;2022-09-09T08:38:36;98578.16;;;22.71;nan
63694;BME280;49839;51.798;10.954;2022-09-09T08:41:27;98588.38;;;23.38;nan
63694;BME280;49839;51.798;10.954;2022-09-09T08:44:02;98586.72;;;23.83;nan
63694;BME280;49839;51.798;10.954;2022-09-09T08:46:41;98581.34;;;24.20;nan
63694;BME280;49839;51.798;10.954;2022-09-09T08:49:23;98581.81;;;24.98;nan
63694;BME280;49839;51.798;10.954;2022-09-09T08:51:55;98583.88;;;24.96;nan
63694;BME280;49839;51.798;10.954;2022-09-09T08:54:25;98579.19;;;25.19;nan
63694;BME280;49839;51.798;10.954;2022-09-09T08:57:20;98584.13;;;25.01;nan
63694;BME280;49839;51.798;10.954;2022-09-09T08:59:54;98589.28;;;24.66;nan
63694;BME280;49839;51.798;10.954;2022-09-09T09:02:27;98585.34;;;24.10;nan
63694;BME280;49839;51.798;10.954;2022-09-09T09:05:13;98594.91;;;23.89;nan
63694;BME280;49839;51.798;10.954;2022-09-09T09:07:53;98587.06;;;23.57;nan
63694;BME280;49839;51.798;10.954;2022-09-09T09:10:33;98602.72;;;23.61;nan
63694;BME280;49839;51.798;10.954;2022-09-09T09:13:15;98594.69;;;23.53;nan
63694;BME280;49839;51.798;10.954;2022-09-09T09:15:47;98597.84;;;23.34;nan
63694;BME280;49839;51.798;10.954;2022-09-09T09:18:17;98588.34;;;22.84;nan
63694;BME280;49839;51.798;10.954;2022-09-09T09:20:50;98595.72;;;22.90;nan
63694;BME280;49839;51.798;10.954;2022-09-09T09:23:22;98601.09;;;22.90;nan
63694;BME280;49839;51.798;10.954;2022-09-09T09:25:52;98598.47;;;22.74;nan
63694;BME280;49839;51.798;10.954;2022-09-09T09:28:27;98594.75;;;22.19;nan
63694;BME280;49839;51.798;10.954;2022-09-09T09:30:59;98612.69;;;21.86;nan
63694;BME280;49839;51.798;10.954;2022-09-09T09:33:33;98610.84;;;21.86;nan
63694;BME280;49839;51.798;10.954;2022-09-09T09:36:02;98613.00;;;22.32;nan
63694;BME280;49839;51.798;10.954;2022-09-09T09:38:29;98606.84;;;22.87;nan
63694;BME280;49839;51.798;10.954;2022-09-09T09:41:28;98615.25;;;23.69;nan
63694;BME280;49839;51.798;10.954;2022-09-09T09:43:58;98614.50;;;23.83;nan
63694;BME280;49839;51.798;10.954;2022-09-09T09:46:27;98615.78;;;24.48;nan
63694;BME280;49839;51.798;10.954;2022-09-09T09:48:59;98620.28;;;24.92;nan
63694;BME280;49839;51.798;10.954;2022-09-09T09:51:28;98629.78;;;25.53;nan
63694;BME280;49839;51.798;10.954;2022-09-09T09:54:08;98628.06;;;26.10;nan
63694;BME280;49839;51.798;10.954;2022-09-09T09:56:36;98636.22;;;25.74;nan
63694;BME280;49839;51.798;10.954;2022-09-09T09:59:11;98632.41;;;25.47;nan
63694;BME280;49839;51.798;10.954;2022-09-09T10:02:06;98630.25;;;25.42;nan
63694;BME280;49839;51.798;10.954;2022-09-09T10:04:40;98630.19;;;25.35;nan
63694;BME280;49839;51.798;10.954;2022-09-09T10:07:12;98628.25;;;25.29;nan
63694;BME280;49839;51.798;10.954;2022-09-09T10:09:40;98630.72;;;24.80;nan
63694;BME280;49839;51.798;10.954;2022-09-09T10:12:15;98632.38;;;24.37;nan
63694;BME280;49839;51.798;10.954;2022-09-09T10:14:49;98640.03;;;24.02;nan
63694;BME280;49839;51.798;10.954;2022-09-09T10:17:25;98637.50;;;23.86;nan
63694;BME280;49839;51.798;10.954;2022-09-09T10:20:13;98624.53;;;23.35;nan
63694;BME280;49839;51.798;10.954;2022-09-09T10:22:50;98628.16;;;23.19;nan
63694;BME280;49839;51.798;10.954;2022-09-09T10:25:31;98633.78;;;23.02;nan
63694;BME280;49839;51.798;10.954;2022-09-09T10:28:19;98630.59;;;22.98;nan
63694;BME280;49839;51.798;10.954;2022-09-09T10:31:04;98627.78;;;23.54;nan
63694;BME280;49839;51.798;10.954;2022-09-09T10:33:44;98627.09;;;23.83;nan
63694;BME280;49839;51.798;10.954;2022-09-09T10:36:19;98607.22;;;24.44;nan
63694;BME280;49839;51.798;10.954;2022-09-09T10:38:52;98615.31;;;24.74;nan
63694;BME280;49839;51.798;10.954;2022-09-09T10:41:34;98607.72;;;25.28;nan
63694;BME280;49839;51.798;10.954;2022-09-09T10:44:16;98609.81;;;25.90;nan
63694;BME280;49839;51.798;10.954;2022-09-09T10:47:19;98605.31;;;26.47;nan
63694;BME280;49839;51.798;10.954;2022-09-09T10:50:13;98605.84;;;25.86;nan
63694;BME280;49839;51.798;10.954;2022-09-09T10:52:51;98598.78;;;25.28;nan
63694;BME280;49839;51.798;10.954;2022-09-09T10:55:39;98592.44;;;24.70;nan
63694;BME280;49839;51.798;10.954;2022-09-09T10:58:13;98583.25;;;24.49;nan
63694;BME280;49839;51.798;10.954;2022-09-09T11:00:44;98586.94;;;24.78;nan
63694;BME280;49839;51.798;10.954;2022-09-09T11:03:18;98586.44;;;25.04;nan
63694;BME280;49839;51.798;10.954;2022-09-09T11:05:49;98590.50;;;25.29;nan
63694;BME280;49839;51.798;10.954;2022-09-09T11:08:21;98586.75;;;25.09;nan
63694;BME280;49839;51.798;10.954;2022-09-09T11:10:53;98594.69;;;25.32;nan
63694;BME280;49839;51.798;10.954;2022-09-09T11:13:31;98590.22;;;25.39;nan
63694;BME280;49839;51.798;10.954;2022-09-09T11:16:16;98583.63;;;25.05;nan
63694;BME280;49839;51.798;10.954;2022-09-09T11:18:46;98585.38;;;24.83;nan
63694;BME280;49839;51.798;10.954;2022-09-09T11:21:19;98597.72;;;24.78;nan
63694;BME280;49839;51.798;10.954;2022-09-09T11:23:52;98598.31;;;24.73;nan
63694;BME280;49839;51.798;10.954;2022-09-09T11:26:30;98585.19;;;24.41;nan
63694;BME280;49839;51.798;10.954;2022-09-09T11:29:14;98588.06;;;24.39;nan
63694;BME280;49839;51.798;10.954;2022-09-09T11:31:57;98590.00;;;24.30;nan
63694;BME280;49839;51.798;10.954;2022-09-09T11:34:47;98586.72;;;24.20;nan
63694;BME280;49839;51.798;10.954;2022-09-09T11:37:37;98581.09;;;24.30;nan
63694;BME280;49839;51.798;10.954;2022-09-09T11:40:19;98572.59;;;24.41;nan
63694;BME280;49839;51.798;10.954;2022-09-09T11:42:48;98572.25;;;24.21;nan
63694;BME280;49839;51.798;10.954;2022-09-09T11:45:22;98578.66;;;24.20;nan
63694;BME280;49839;51.798;10.954;2022-09-09T11:47:53;98579.75;;;23.96;nan
63694;BME280;49839;51.798;10.954;2022-09-09T11:50:31;98579.66;;;23.67;nan
63694;BME280;49839;51.798;10.954;2022-09-09T11:53:17;98577.19;;;23.80;nan
63694;BME280;49839;51.798;10.954;2022-09-09T11:56:26;98584.34;;;23.88;nan
63694;BME280;49839;51.798;10.954;2022-09-09T11:58:57;98574.06;;;23.68;nan
63694;BME280;49839;51.798;10.954;2022-09-09T12:01:29;98567.63;;;23.77;nan
63694;BME280;49839;51.798;10.954;2022-09-09T12:04:12;98566.81;;;23.92;nan
63694;BME280;49839;51.798;10.954;2022-09-09T12:06:50;98564.94;;;23.77;nan
63694;BME280;49839;51.798;10.954;2022-09-09T12:09:23;98570.13;;;23.79;nan
63694;BME280;49839;51.798;10.954;2022-09-09T12:11:52;98569.53;;;23.69;nan
63694;BME280;49839;51.798;10.954;2022-09-09T12:14:22;98573.47;;;23.58;nan
63694;BME280;49839;51.798;10.954;2022-09-09T12:16:50;98575.94;;;23.68;nan
63694;BME280;49839;51.798;10.954;2022-09-09T12:19:20;98576.81;;;23.60;nan
63694;BME280;49839;51.798;10.954;2022-09-09T12:21:58;98563.69;;;23.65;nan
63694;BME280;49839;51.798;10.954;2022-09-09T12:24:33;98561.31;;;23.70;nan
63694;BME280;49839;51.798;10.954;2022-09-09T12:27:07;98559.22;;;23.49;nan
63694;BME280;49839;51.798;10.954;2022-09-09T12:29:43;98554.16;;;23.55;nan
63694;BME280;49839;51.798;10.954;2022-09-09T12:32:17;98563.06;;;23.55;nan
63694;BME280;49839;51.798;10.954;2022-09-09T12:34:51;98557.28;;;23.66;nan
63694;BME280;49839;51.798;10.954;2022-09-09T12:37:27;98550.25;;;23.65;nan
63694;BME280;49839;51.798;10.954;2022-09-09T12:39:57;98540.00;;;23.84;nan
63694;BME280;49839;51.798;10.954;2022-09-09T12:42:26;98548.72;;;23.86;nan
63694;BME280;49839;51.798;10.954;2022-09-09T12:44:56;98542.31;;;24.01;nan
63694;BME280;49839;51.798;10.954;2022-09-09T12:47:30;98535.94;;;24.02;nan
63694;BME280;49839;51.798;10.954;2022-09-09T12:50:02;98542.31;;;24.01;nan
63694;BME280;49839;51.798;10.954;2022-09-09T12:52:34;98542.16;;;24.03;nan
63694;BME280;49839;51.798;10.954;2022-09-09T12:55:04;98534.34;;;24.08;nan
63694;BME280;49839;51.798;10.954;2022-09-09T12:57:38;98533.81;;;24.27;nan
63694;BME280;49839;51.798;10.954;2022-09-09T13:00:11;98534.09;;;24.32;nan
63694;BME280;49839;51.798;10.954;2022-09-09T13:02:49;98527.66;;;24.42;nan
63694;BME280;49839;51.798;10.954;2022-09-09T13:05:20;98529.53;;;24.33;nan
63694;BME280;49839;51.798;10.954;2022-09-09T13:07:51;98544.47;;;24.21;nan
63694;BME280;49839;51.798;10.954;2022-09-09T13:10:24;98536.22;;;24.08;nan
63694;BME280;49839;51.798;10.954;2022-09-09T13:13:02;98531.41;;;24.03;nan
63694;BME280;49839;51.798;10.954;2022-09-09T13:15:31;98535.84;;;24.11;nan
63694;BME280;49839;51.798;10.954;2022-09-09T13:18:01;98528.63;;;24.11;nan
63694;BME280;49839;51.798;10.954;2022-09-09T13:20:32;98529.00;;;24.23;nan
63694;BME280;49839;51.798;10.954;2022-09-09T13:23:01;98530.09;;;24.14;nan
63694;BME280;49839;51.798;10.954;2022-09-09T13:25:29;98529.94;;;24.30;nan
63694;BME280;49839;51.798;10.954;2022-09-09T13:27:59;98527.72;;;24.34;nan
63694;BME280;49839;51.798;10.954;2022-09-09T13:30:28;98526.75;;;24.26;nan
63694;BME280;49839;51.798;10.954;2022-09-09T13:33:06;98520.13;;;24.37;nan
63694;BME280;49839;51.798;10.954;2022-09-09T13:35:48;98525.13;;;24.40;nan
63694;BME280;49839;51.798;10.954;2022-09-09T13:38:17;98514.03;;;24.20;nan
63694;BME280;49839;51.798;10.954;2022-09-09T13:40:54;98510.41;;;23.98;nan